Amarillo, Texas
Current Conditions -  °F | °C
As of 6:53 AM on Monday 20 Oct 2014 (Local Time) from KAMA Reporting Station
Clear Clear  
Wind Chill: 55°   Ceiling: Unl
Heat Index: 55°   Visibility: 7mi
Dew Point: 54°   Wind: 6mph
Humidity: 96%   Direction: 250°WSW
Pressure: 30.11"   Gusts: NA
Location:  35.21°N, 101.83°W
Report Text: KAMA 201153Z 25005KT 7SM CLR 13/12 A3011 RMK AO2 SLP162 T01280122 10144 20122 53005
Loading
Personal Weather Stations






























Interactive Weather Map
Tropical Storm Tracking
New forecast layout! Learn more

10-Day Weather Forecast

Advertisements
Track Severe Weather on mobile